Time;durP1;ratioP1;P1;durP2;ratioP2;P2;SDS_P1;SDS_P2;PMS_P1;PMS_P2;Temp;Humidity;BMP_temperature;BMP_pressure;BME280_temperature;BME280_humidity;BME280_pressure;Samples;Min_cycle;Max_cycle;Signal;HPM_P1;HPM_P2
2021/11/17 02:28:20;;;;;;;12.50;8.80;;;3.40;99.90;;;;;;5009230;28;20057;-81
2021/11/17 02:30:50;;;;;;;;;;;3.40;99.90;;;;;;5009924;28;20495;-82
2021/11/17 02:33:23;;;;;;;12.75;4.63;;;3.40;99.90;;;;;;5010129;28;19993;-82
2021/11/17 02:36:19;;;;;;;11.85;7.38;;;3.40;99.90;;;;;;5010063;28;20050;-82
2021/11/17 02:39:32;;;;;;;11.35;7.55;;;3.40;99.90;;;;;;5007645;28;20045;-82
2021/11/17 02:42:25;;;;;;;14.05;9.70;;;3.40;99.90;;;;;;5009631;28;20042;-82
2021/11/17 02:45:11;;;;;;;18.45;10.90;;;3.40;99.90;;;;;;5008223;28;20050;-82
2021/11/17 02:47:42;;;;;;;14.98;6.03;;;3.40;99.90;;;;;;5006464;28;20034;-80
2021/11/17 02:50:30;;;;;;;11.97;7.67;;;3.40;99.90;;;;;;5008058;28;20042;-79
2021/11/17 02:53:21;;;;;;;8.00;5.40;;;3.40;99.90;;;;;;5006889;28;20487;-79
2021/11/17 02:56:12;;;;;;;13.73;8.02;;;3.40;99.90;;;;;;5039716;28;20045;-79
2021/11/17 02:58:46;;;;;;;16.13;7.73;;;3.30;99.90;;;;;;5008705;28;20038;-77
2021/11/17 03:01:20;;;;;;;13.43;6.90;;;3.40;99.90;;;;;;5007744;28;20046;-77
2021/11/17 03:03:53;;;;;;;10.65;7.93;;;3.30;99.90;;;;;;5009035;28;20486;-77
2021/11/17 03:06:45;;;;;;;11.63;8.43;;;3.30;99.90;;;;;;5009422;28;20105;-77
2021/11/17 03:09:44;;;;;;;9.93;6.28;;;3.30;99.90;;;;;;5007605;28;20050;-78
2021/11/17 03:12:40;;;;;;;7.93;6.70;;;3.30;99.90;;;;;;5029305;28;20045;-78
2021/11/17 03:15:27;;;;;;;14.45;7.18;;;3.20;99.90;;;;;;5009674;28;20042;-77
2021/11/17 03:18:28;;;;;;;12.35;8.32;;;3.20;99.90;;;;;;5007764;28;20046;-78
2021/11/17 03:21:05;;;;;;;12.80;6.03;;;3.20;99.90;;;;;;5007829;28;20062;-77
2021/11/17 03:23:57;;;;;;;9.32;6.82;;;3.20;99.90;;;;;;5005414;28;20050;-78
2021/11/17 03:26:54;;;;;;;14.35;7.15;;;3.20;99.90;;;;;;5018763;28;20053;-78
2021/11/17 03:29:31;;;;;;;14.13;6.32;;;3.20;99.90;;;;;;5008130;28;20057;-78
2021/11/17 03:32:13;;;;;;;17.15;8.93;;;3.20;99.90;;;;;;5008599;28;20418;-78
2021/11/17 03:35:05;;;;;;;13.23;6.75;;;3.20;99.90;;;;;;5008496;28;20502;-77
2021/11/17 03:38:00;;;;;;;10.27;6.78;;;3.20;99.90;;;;;;5002452;28;20056;-78
2021/11/17 03:41:00;;;;;;;17.75;9.55;;;3.10;99.90;;;;;;5009584;28;20030;-77
2021/11/17 03:43:28;;;;;;;13.05;6.93;;;3.10;99.90;;;;;;4999872;28;20061;-78
2021/11/17 03:46:14;;;;;;;11.65;7.03;;;3.10;99.90;;;;;;5008371;28;20061;-78
2021/11/17 03:48:45;;;;;;;15.15;6.88;;;3.10;99.90;;;;;;5010547;28;20042;-78
2021/11/17 03:51:59;;;;;;;9.23;6.47;;;3.10;99.90;;;;;;5011124;28;20046;-79
2021/11/17 03:55:32;;;;;;;19.02;8.45;;;3.10;99.90;;;;;;4998602;28;20054;-79
2021/11/17 03:58:42;;;;;;;14.57;7.28;;;3.10;99.90;;;;;;5032439;28;20052;-79
2021/11/17 04:01:46;;;;;;;10.45;7.75;;;3.10;99.90;;;;;;5032624;28;20037;-79
2021/11/17 04:05:00;;;;;;;13.80;7.88;;;3.10;99.90;;;;;;5031857;28;20410;-79
2021/11/17 04:07:45;;;;;;;11.85;6.25;;;3.10;99.90;;;;;;5003495;28;20041;-79
2021/11/17 04:10:39;;;;;;;13.18;7.55;;;3.00;99.90;;;;;;5033038;28;20056;-80
2021/11/17 04:13:23;;;;;;;11.15;9.20;;;3.00;99.90;;;;;;5029205;28;21024;-79
2021/11/17 04:16:12;;;;;;;10.85;8.02;;;3.10;99.90;;;;;;5047067;28;20045;-79
2021/11/17 04:18:57;;;;;;;12.25;9.32;;;3.10;99.90;;;;;;5031148;28;20041;-79
2021/11/17 04:21:44;;;;;;;12.98;9.73;;;3.10;99.90;;;;;;5031491;28;20052;-79
2021/11/17 04:24:31;;;;;;;18.70;9.38;;;3.10;99.90;;;;;;5031248;28;20049;-79
2021/11/17 04:27:29;;;;;;;12.25;7.35;;;3.00;99.90;;;;;;5013030;28;20052;-79
2021/11/17 04:29:57;;;;;;;12.23;8.13;;;3.00;99.90;;;;;;5030326;28;20045;-79
2021/11/17 04:32:34;;;;;;;13.98;9.18;;;3.00;99.90;;;;;;5032935;28;20041;-79
2021/11/17 04:35:15;;;;;;;14.48;7.70;;;3.00;99.90;;;;;;5031159;28;20041;-79
2021/11/17 04:38:04;;;;;;;15.57;8.65;;;3.00;99.90;;;;;;5030682;28;20509;-79
2021/11/17 04:40:47;;;;;;;15.50;7.40;;;3.00;99.90;;;;;;5054465;28;20046;-79
2021/11/17 04:43:49;;;;;;;12.75;5.47;;;3.00;99.90;;;;;;5030140;28;20486;-79
2021/11/17 04:46:35;;;;;;;16.70;9.17;;;3.00;99.90;;;;;;5030203;28;20046;-79
2021/11/17 04:49:29;;;;;;;12.55;6.80;;;3.00;99.90;;;;;;5013610;28;20054;-79
2021/11/17 04:52:25;;;;;;;13.65;7.32;;;3.00;99.90;;;;;;4992100;28;20076;-79
2021/11/17 04:55:34;;;;;;;15.27;8.48;;;3.00;99.90;;;;;;4992288;28;20042;-79
2021/11/17 04:58:27;;;;;;;15.32;8.10;;;3.00;99.90;;;;;;5017795;28;20049;-79
2021/11/17 05:01:01;;;;;;;12.80;8.25;;;3.00;99.90;;;;;;5011607;28;20046;-79
2021/11/17 05:03:38;;;;;;;10.10;6.20;;;2.90;99.90;;;;;;5030661;28;20042;-80
2021/11/17 05:06:37;;;;;;;12.55;9.57;;;2.90;99.90;;;;;;5030655;28;20422;-80
2021/11/17 05:09:16;;;;;;;9.85;6.40;;;2.90;99.90;;;;;;5012874;28;20414;-80
2021/11/17 05:12:12;;;;;;;12.88;8.02;;;2.90;99.90;;;;;;5029969;28;20042;-81
2021/11/17 05:14:46;;;;;;;14.68;8.38;;;2.90;99.90;;;;;;5027350;28;20049;-79
2021/11/17 05:17:57;;;;;;;13.40;7.10;;;2.90;99.90;;;;;;5031998;28;20045;-79
2021/11/17 05:21:32;;;;;;;12.15;8.35;;;2.90;99.90;;;;;;5039240;28;20042;-79
2021/11/17 05:24:45;;;;;;;15.07;8.23;;;2.90;99.90;;;;;;5039596;28;20052;-80
2021/11/17 05:27:44;;;;;;;10.73;5.30;;;2.90;99.90;;;;;;4992350;28;20064;-79
2021/11/17 05:30:24;;;;;;;16.52;8.45;;;2.90;99.90;;;;;;5030667;28;20048;-79
2021/11/17 05:32:58;;;;;;;14.63;10.23;;;2.90;99.90;;;;;;5006243;28;20054;-79
2021/11/17 05:35:41;;;;;;;16.00;7.95;;;3.00;99.90;;;;;;5031216;28;20041;-80
2021/11/17 05:38:27;;;;;;;9.48;6.25;;;2.90;99.90;;;;;;5029931;28;20053;-80
2021/11/17 05:41:19;;;;;;;24.98;7.38;;;3.00;99.90;;;;;;5028411;28;20473;-79
2021/11/17 05:44:04;;;;;;;11.77;7.78;;;2.90;99.90;;;;;;5009828;28;20046;-79
2021/11/17 05:46:34;;;;;;;16.58;8.68;;;2.90;99.90;;;;;;5019097;28;20064;-79
2021/11/17 05:49:17;;;;;;;16.33;9.95;;;2.90;99.90;;;;;;5026902;28;20072;-80
2021/11/17 05:52:09;;;;;;;13.15;6.63;;;2.90;99.90;;;;;;5028848;28;20045;-80
2021/11/17 05:55:07;;;;;;;12.05;8.50;;;2.90;99.90;;;;;;5013100;28;20478;-79
2021/11/17 05:57:57;;;;;;;10.07;6.65;;;2.90;99.90;;;;;;5028354;28;20486;-80
2021/11/17 06:00:43;;;;;;;10.85;7.28;;;2.90;99.90;;;;;;5012246;28;20050;-79
2021/11/17 06:03:32;;;;;;;17.13;10.95;;;3.00;99.90;;;;;;5030435;28;20057;-79
2021/11/17 06:05:59;;;;;;;11.50;7.45;;;3.00;99.90;;;;;;5030727;28;20049;-80
2021/11/17 06:08:27;;;;;;;15.63;8.23;;;3.00;99.90;;;;;;5029303;28;20045;-80
2021/11/17 06:10:58;;;;;;;15.40;7.35;;;3.00;99.90;;;;;;5027009;28;20045;-80
2021/11/17 06:13:26;;;;;;;17.08;8.32;;;3.00;99.90;;;;;;5012097;28;20050;-79
2021/11/17 06:15:55;;;;;;;14.27;7.82;;;3.00;99.90;;;;;;5026977;28;20386;-79
2021/11/17 06:18:27;;;;;;;15.80;9.02;;;2.90;99.90;;;;;;5030291;28;20048;-80
2021/11/17 06:20:55;;;;;;;14.25;7.93;;;3.00;99.90;;;;;;5026999;28;20045;-79
2021/11/17 06:23:32;;;;;;;9.50;6.30;;;2.90;99.90;;;;;;5029397;28;20045;-80
2021/11/17 06:26:05;;;;;;;13.30;11.10;;;2.90;99.90;;;;;;5027021;28;20057;-80
2021/11/17 06:28:33;;;;;;;16.25;10.18;;;2.90;99.90;;;;;;5030353;28;20052;-79
2021/11/17 06:31:01;;;;;;;12.38;7.97;;;3.00;99.90;;;;;;5029857;28;20050;-80
2021/11/17 06:33:29;;;;;;;11.93;7.63;;;2.90;99.90;;;;;;5028550;28;20048;-79
2021/11/17 06:35:57;;;;;;;13.88;8.77;;;2.90;99.90;;;;;;5030293;28;20050;-79
2021/11/17 06:38:27;;;;;;;11.85;8.82;;;3.00;99.90;;;;;;5029390;28;20045;-79
2021/11/17 06:40:55;;;;;;;18.20;8.73;;;2.90;99.90;;;;;;5027500;28;20041;-79
2021/11/17 06:43:24;;;;;;;15.65;8.43;;;3.00;99.90;;;;;;5029719;28;20053;-80
2021/11/17 06:45:55;;;;;;;12.35;8.50;;;3.00;99.90;;;;;;5030105;28;20397;-80
2021/11/17 06:48:26;;;;;;;13.15;7.85;;;3.00;99.90;;;;;;5030568;28;20064;-80
2021/11/17 06:50:54;;;;;;;10.98;7.90;;;3.00;99.90;;;;;;5026209;28;20061;-79
2021/11/17 06:53:24;;;;;;;14.73;7.35;;;3.00;99.90;;;;;;5028701;28;20128;-79
2021/11/17 06:55:52;;;;;;;16.50;9.88;;;3.00;99.90;;;;;;5030148;28;20049;-79
2021/11/17 06:58:20;;;;;;;15.48;7.82;;;3.00;99.90;;;;;;5028411;28;20045;-79
2021/11/17 07:00:51;;;;;;;16.83;8.93;;;3.20;99.90;;;;;;5012037;28;20072;-79
2021/11/17 07:03:19;;;;;;;14.60;7.28;;;3.00;99.90;;;;;;5028489;28;20398;-79
2021/11/17 07:05:47;;;;;;;12.77;7.95;;;3.10;99.90;;;;;;5029662;28;20152;-80
2021/11/17 07:08:15;;;;;;;14.57;8.35;;;3.10;99.90;;;;;;5029536;28;20046;-80
2021/11/17 07:10:43;;;;;;;15.35;6.95;;;3.10;99.90;;;;;;5029808;28;20508;-78
2021/11/17 07:13:10;;;;;;;10.90;6.28;;;3.10;99.90;;;;;;5029985;28;20057;-79
2021/11/17 07:15:38;;;;;;;13.10;6.63;;;3.20;99.90;;;;;;5029909;28;20045;-79
2021/11/17 07:18:06;;;;;;;23.35;10.65;;;3.20;99.90;;;;;;5029295;28;20049;-80
2021/11/17 07:20:36;;;;;;;17.67;9.43;;;3.20;99.90;;;;;;5027016;28;20045;-80
2021/11/17 07:23:06;;;;;;;13.07;8.70;;;3.20;99.90;;;;;;5031875;28;20046;-80
2021/11/17 07:25:34;;;;;;;11.23;6.72;;;3.20;99.90;;;;;;5031363;28;20489;-79
2021/11/17 07:28:02;;;;;;;13.45;7.10;;;3.20;99.90;;;;;;5034301;28;20048;-80
2021/11/17 07:30:35;;;;;;;13.63;7.60;;;3.30;99.90;;;;;;5033647;28;20053;-79
2021/11/17 07:33:04;;;;;;;16.98;9.13;;;3.30;99.90;;;;;;5033570;28;20041;-79
2021/11/17 07:35:34;;;;;;;13.43;7.85;;;3.30;99.90;;;;;;5033613;28;20501;-79
2021/11/17 07:38:06;;;;;;;15.02;9.68;;;3.30;99.90;;;;;;5031687;28;20053;-79
2021/11/17 07:40:37;;;;;;;16.08;7.82;;;3.30;99.90;;;;;;5030703;28;20474;-79
2021/11/17 07:43:13;;;;;;;15.45;7.80;;;3.30;99.90;;;;;;5033354;28;20045;-80
2021/11/17 07:45:43;;;;;;;15.82;8.38;;;3.30;99.90;;;;;;5032258;28;20052;-80
2021/11/17 07:48:13;;;;;;;17.10;8.82;;;3.30;99.90;;;;;;5032064;28;20512;-79
2021/11/17 07:50:42;;;;;;;12.70;7.95;;;3.40;99.90;;;;;;5030703;28;20037;-79
2021/11/17 07:53:15;;;;;;;20.20;7.88;;;3.40;99.90;;;;;;5029709;28;20053;-79
2021/11/17 07:55:46;;;;;;;15.07;8.57;;;3.30;99.90;;;;;;5033309;28;20045;-79
2021/11/17 07:58:15;;;;;;;15.23;6.33;;;3.30;99.90;;;;;;5030131;28;20045;-80
2021/11/17 08:00:48;;;;;;;12.98;7.60;;;3.40;99.90;;;;;;5014304;28;20060;-80
2021/11/17 08:03:20;;;;;;;10.05;7.05;;;3.40;99.90;;;;;;5030794;28;20037;-80
2021/11/17 08:05:50;;;;;;;16.35;9.95;;;3.40;99.90;;;;;;5032824;28;20041;-80
2021/11/17 08:08:19;;;;;;;10.55;7.57;;;3.40;99.90;;;;;;5030183;28;20060;-80
2021/11/17 08:10:48;;;;;;;16.42;7.85;;;3.40;99.90;;;;;;5015357;28;20469;-80
2021/11/17 08:13:15;;;;;;;15.32;8.25;;;3.50;99.90;;;;;;5029277;28;20060;-79
2021/11/17 08:15:44;;;;;;;11.30;9.07;;;3.50;99.90;;;;;;5033245;28;20390;-79
2021/11/17 08:18:12;;;;;;;9.45;6.70;;;3.50;99.90;;;;;;5030981;28;20034;-79
2021/11/17 08:20:39;;;;;;;10.45;7.40;;;3.50;99.90;;;;;;5032806;28;20041;-79
2021/11/17 08:23:07;;;;;;;14.13;7.90;;;3.40;99.90;;;;;;5031696;28;20399;-79
2021/11/17 08:25:38;;;;;;;14.77;8.02;;;3.40;99.90;;;;;;5030213;28;20049;-79
2021/11/17 08:31:42;;;;;;;11.77;7.28;;;3.50;99.90;;;;;;5029914;28;20426;-80
2021/11/17 08:34:10;;;;;;;11.85;6.82;;;3.60;99.90;;;;;;5013307;28;20038;-80
2021/11/17 08:36:38;;;;;;;11.43;6.85;;;3.60;99.90;;;;;;5031542;28;20045;-80
2021/11/17 08:39:07;;;;;;;13.35;7.85;;;3.60;99.90;;;;;;5030605;28;20038;-80
2021/11/17 08:41:35;;;;;;;10.80;6.68;;;3.60;99.90;;;;;;5028134;28;20057;-79
2021/11/17 08:44:03;;;;;;;12.52;6.53;;;3.60;99.90;;;;;;5015157;28;20053;-80
2021/11/17 08:46:35;;;;;;;11.90;8.82;;;3.60;99.90;;;;;;5032259;28;20045;-80
2021/11/17 08:49:15;;;;;;;12.52;7.18;;;3.70;99.90;;;;;;5029000;28;20490;-80
2021/11/17 08:51:42;;;;;;;11.50;6.13;;;3.60;99.90;;;;;;5030355;28;20045;-80
2021/11/17 08:54:10;;;;;;;12.18;7.57;;;3.60;99.90;;;;;;5013004;28;20045;-79
2021/11/17 08:56:39;;;;;;;9.55;6.93;;;3.60;99.90;;;;;;5031558;28;20696;-78
2021/11/17 08:59:06;;;;;;;11.23;6.90;;;3.60;99.90;;;;;;5032530;28;20533;-80
2021/11/17 09:01:35;;;;;;;10.55;7.43;;;3.70;99.90;;;;;;5028018;28;20040;-77
2021/11/17 09:04:07;;;;;;;8.30;7.13;;;3.70;99.90;;;;;;5032737;28;20049;-80
2021/11/17 09:06:38;;;;;;;19.38;9.00;;;3.70;99.90;;;;;;5032271;28;20061;-79
2021/11/17 09:09:06;;;;;;;10.90;7.03;;;3.70;99.90;;;;;;5031107;28;20045;-79
2021/11/17 09:11:38;;;;;;;12.82;6.03;;;3.70;99.90;;;;;;5028902;28;20048;-80
2021/11/17 09:14:08;;;;;;;11.02;7.10;;;3.80;99.90;;;;;;5032707;28;20056;-80
2021/11/17 09:16:39;;;;;;;12.88;7.07;;;3.70;99.90;;;;;;5013222;28;20041;-79
2021/11/17 09:19:14;;;;;;;14.05;7.95;;;3.80;99.90;;;;;;5030822;28;20042;-80
2021/11/17 09:21:53;;;;;;;15.10;7.85;;;3.70;99.90;;;;;;5052490;28;20050;-79
2021/11/17 09:24:22;;;;;;;11.23;7.60;;;3.80;99.90;;;;;;5030847;28;20486;-79
2021/11/17 09:26:54;;;;;;;14.55;8.05;;;3.80;99.90;;;;;;5031954;28;20394;-80
2021/11/17 09:29:23;;;;;;;12.98;7.75;;;3.90;99.90;;;;;;5012851;28;20057;-80
2021/11/17 09:31:51;;;;;;;13.30;8.93;;;3.90;99.90;;;;;;5030433;28;20072;-80
2021/11/17 09:34:19;;;;;;;13.05;6.93;;;4.00;99.90;;;;;;5030287;28;20045;-80
2021/11/17 09:36:47;;;;;;;14.40;9.02;;;3.90;99.90;;;;;;5032446;28;20046;-80
2021/11/17 09:39:16;;;;;;;11.40;6.57;;;3.90;99.90;;;;;;5027406;28;20038;-80
2021/11/17 09:41:49;;;;;;;13.05;7.82;;;3.90;99.90;;;;;;5031722;28;20049;-80
2021/11/17 09:44:25;;;;;;;11.68;8.88;;;3.90;99.90;;;;;;5028440;28;20049;-80
2021/11/17 09:46:54;;;;;;;9.63;6.28;;;4.00;99.90;;;;;;5030525;28;20072;-80
2021/11/17 09:49:35;;;;;;;11.13;8.20;;;4.00;99.90;;;;;;5031549;28;20053;-80
2021/11/17 09:52:14;;;;;;;14.00;7.37;;;4.00;99.90;;;;;;5028723;28;20045;-80
2021/11/17 09:55:07;;;;;;;16.75;7.50;;;4.00;99.90;;;;;;5029482;28;20080;-80
2021/11/17 09:57:40;;;;;;;12.27;6.45;;;4.00;99.90;;;;;;5028917;28;20033;-81
2021/11/17 10:00:41;;;;;;;15.63;8.15;;;4.00;99.90;;;;;;5014119;28;20045;-81
2021/11/17 10:03:12;;;;;;;20.85;7.10;;;4.10;99.90;;;;;;5029765;28;20049;-80
2021/11/17 10:14:11;;;;;;;10.27;8.35;;;4.10;99.90;;;;;;5015881;28;20048;-80
2021/11/17 10:16:40;;;;;;;12.15;8.13;;;4.10;99.90;;;;;;5052593;28;20475;-80
2021/11/17 10:19:26;;;;;;;14.80;7.07;;;4.20;99.90;;;;;;5030622;28;20045;-80
2021/11/17 10:22:06;;;;;;;11.25;6.57;;;4.20;99.90;;;;;;5037072;28;20053;-80
2021/11/17 10:24:50;;;;;;;13.48;10.15;;;4.10;99.90;;;;;;5029915;28;20049;-80
2021/11/17 10:27:25;;;;;;;10.70;7.68;;;4.10;99.90;;;;;;5026964;28;20478;-81
2021/11/17 10:30:05;;;;;;;10.00;8.18;;;4.10;99.90;;;;;;5028842;28;20045;-80
2021/11/17 10:32:37;;;;;;;8.48;5.90;;;4.20;99.90;;;;;;5029537;28;20621;-81
2021/11/17 10:35:19;;;;;;;13.73;6.85;;;4.10;99.90;;;;;;5029570;28;20052;-80
2021/11/17 10:38:25;;;;;;;14.27;8.80;;;4.20;99.90;;;;;;5028916;28;20398;-80
2021/11/17 10:40:59;;;;;;;10.57;6.20;;;4.30;99.90;;;;;;5028166;28;20049;-81
2021/11/17 10:43:33;;;;;;;13.10;6.70;;;4.40;99.90;;;;;;5030074;28;20120;-81
2021/11/17 10:46:09;;;;;;;5.93;4.38;;;4.50;99.90;;;;;;5027020;28;20505;-80
2021/11/17 10:48:53;;;;;;;10.85;6.88;;;4.30;99.90;;;;;;5026439;28;20052;-80
2021/11/17 10:51:32;;;;;;;8.43;4.93;;;4.30;99.90;;;;;;5023488;28;20061;-81
2021/11/17 10:54:10;;;;;;;8.00;6.18;;;4.30;99.90;;;;;;5011298;28;20057;-80
2021/11/17 10:56:41;;;;;;;8.75;5.45;;;4.30;99.90;;;;;;5027875;28;20045;-80
2021/11/17 10:59:09;;;;;;;12.65;6.68;;;4.30;99.90;;;;;;5012575;28;20045;-81
2021/11/17 11:01:41;;;;;;;10.60;5.50;;;4.20;99.90;;;;;;5026968;28;20065;-81
2021/11/17 11:04:19;;;;;;;7.50;5.47;;;4.20;99.90;;;;;;5029016;28;20042;-81
2021/11/17 11:07:11;;;;;;;11.05;6.95;;;4.30;99.90;;;;;;5029881;28;20049;-81
2021/11/17 11:09:49;;;;;;;9.98;6.38;;;4.20;99.90;;;;;;5018959;28;20041;-80
2021/11/17 11:12:17;;;;;;;10.70;5.85;;;4.20;99.90;;;;;;5027893;28;20045;-81
2021/11/17 11:14:53;;;;;;;10.65;5.57;;;4.10;99.90;;;;;;5029989;28;20397;-81
2021/11/17 11:17:26;;;;;;;7.97;5.00;;;4.20;99.90;;;;;;5028534;28;20038;-78
2021/11/17 11:20:20;;;;;;;8.90;5.97;;;4.10;99.90;;;;;;5028833;28;20068;-78
2021/11/17 11:23:07;;;;;;;8.50;5.93;;;4.20;99.90;;;;;;5026091;28;20037;-78
2021/11/17 11:25:53;;;;;;;11.98;6.38;;;4.20;99.90;;;;;;5038055;28;20041;-79
2021/11/17 11:28:21;;;;;;;10.55;6.15;;;4.10;99.90;;;;;;5051112;28;20037;-80
2021/11/17 11:31:04;;;;;;;13.82;6.55;;;4.20;99.90;;;;;;5028237;28;20041;-81
2021/11/17 11:33:33;;;;;;;11.25;6.40;;;4.20;99.90;;;;;;5029284;28;20064;-81
2021/11/17 11:36:10;;;;;;;12.02;6.72;;;4.30;99.90;;;;;;5029464;28;20505;-80
2021/11/17 11:38:40;;;;;;;9.07;6.95;;;4.20;99.90;;;;;;5026111;28;20033;-81
2021/11/17 11:41:29;;;;;;;7.55;4.32;;;4.20;99.90;;;;;;5030799;28;20056;-79
2021/11/17 11:44:25;;;;;;;10.25;6.55;;;4.20;99.90;;;;;;5057493;28;20045;-79
2021/11/17 11:46:56;;;;;;;9.38;4.95;;;4.20;99.90;;;;;;5028144;28;20053;-82
2021/11/17 11:49:45;;;;;;;9.68;6.53;;;4.20;99.90;;;;;;5008640;28;20057;-80
2021/11/17 11:52:31;;;;;;;8.00;4.93;;;4.20;99.90;;;;;;5027173;28;20056;-79
2021/11/17 11:55:02;;;;;;;11.20;7.78;;;4.20;99.90;;;;;;5028653;28;20049;-81
2021/11/17 11:57:33;;;;;;;9.20;5.60;;;4.20;99.90;;;;;;5028564;28;20045;-80
2021/11/17 12:00:16;;;;;;;9.40;5.72;;;4.20;99.90;;;;;;5030516;28;20465;-80
2021/11/17 12:02:58;;;;;;;10.07;6.32;;;4.20;99.90;;;;;;5029137;28;20037;-80
2021/11/17 12:05:37;;;;;;;10.50;6.57;;;4.30;99.90;;;;;;5009373;28;20056;-79
2021/11/17 12:08:20;;;;;;;9.65;6.10;;;4.30;99.90;;;;;;5029322;28;20049;-81
2021/11/17 12:11:10;;;;;;;7.82;5.05;;;4.40;99.90;;;;;;5030645;28;20409;-80
2021/11/17 12:13:59;;;;;;;8.85;7.00;;;4.30;99.90;;;;;;5029239;28;20501;-81
2021/11/17 12:16:34;;;;;;;6.88;4.30;;;4.40;99.90;;;;;;5034402;28;20057;-81
2021/11/17 12:19:28;;;;;;;7.55;6.05;;;4.40;99.90;;;;;;5033231;28;20435;-81
2021/11/17 12:22:04;;;;;;;11.77;5.38;;;4.40;99.90;;;;;;5031353;28;20410;-81
2021/11/17 12:24:38;;;;;;;8.30;5.63;;;4.40;99.90;;;;;;5031390;28;20041;-80
2021/11/17 12:27:22;;;;;;;7.03;4.55;;;4.40;99.90;;;;;;5007998;28;20030;-82
2021/11/17 12:30:04;;;;;;;9.32;5.68;;;4.50;99.90;;;;;;5031129;28;20048;-82
2021/11/17 12:32:39;;;;;;;7.78;5.95;;;4.50;99.90;;;;;;5014168;28;20057;-81
2021/11/17 12:35:28;;;;;;;8.23;6.82;;;4.60;99.90;;;;;;5012435;28;20651;-81
2021/11/17 12:38:04;;;;;;;9.07;6.05;;;4.50;99.90;;;;;;5030782;28;20038;-81
2021/11/17 12:41:05;;;;;;;8.15;4.80;;;4.50;99.90;;;;;;4998405;28;20061;-81
2021/11/17 12:44:00;;;;;;;8.60;4.35;;;4.40;99.90;;;;;;5031068;28;20069;-79
2021/11/17 12:47:11;;;;;;;10.75;5.55;;;4.40;99.90;;;;;;5033687;28;20037;-81
2021/11/17 12:50:09;;;;;;;10.60;5.53;;;4.50;99.90;;;;;;5031921;28;20041;-82
2021/11/17 12:52:52;;;;;;;6.35;4.13;;;4.50;99.90;;;;;;5051753;28;20060;-81
2021/11/17 12:55:29;;;;;;;6.40;3.97;;;4.50;99.90;;;;;;5015233;28;20552;-81
2021/11/17 12:58:05;;;;;;;5.13;3.95;;;4.60;99.90;;;;;;5030992;28;20430;-81
2021/11/17 13:00:47;;;;;;;8.25;5.25;;;4.50;99.90;;;;;;5025900;28;20042;-81
2021/11/17 13:03:29;;;;;;;8.05;5.90;;;4.50;99.90;;;;;;5014005;28;20402;-81
2021/11/17 13:06:08;;;;;;;6.88;5.03;;;4.50;99.90;;;;;;5030654;28;20057;-81
2021/11/17 13:08:42;;;;;;;9.85;6.18;;;4.50;99.90;;;;;;5014721;28;20060;-81
2021/11/17 13:11:25;;;;;;;7.68;6.15;;;4.50;99.90;;;;;;5015042;28;20541;-79
2021/11/17 13:13:58;;;;;;;6.20;5.55;;;4.50;99.90;;;;;;5031826;28;20053;-79
2021/11/17 13:16:35;;;;;;;6.68;4.95;;;4.50;99.90;;;;;;5029927;28;20364;-79
2021/11/17 13:19:17;;;;;;;7.45;4.93;;;4.40;99.90;;;;;;5031823;28;20048;-78
2021/11/17 13:21:57;;;;;;;7.32;4.00;;;4.50;99.90;;;;;;5029995;28;20049;-79
2021/11/17 13:24:37;;;;;;;8.23;5.18;;;4.50;99.90;;;;;;5031266;28;20041;-80
2021/11/17 13:27:07;;;;;;;7.45;4.68;;;4.50;99.90;;;;;;5030872;28;20771;-81
2021/11/17 13:30:16;;;;;;;14.38;6.65;;;4.50;99.90;;;;;;5014417;28;20056;-82
2021/11/17 13:32:46;;;;;;;6.63;3.70;;;4.60;99.90;;;;;;5031914;28;20079;-82
2021/11/17 13:35:34;;;;;;;5.95;4.47;;;4.50;99.90;;;;;;5012012;28;20041;-80
2021/11/17 13:38:20;;;;;;;8.30;3.70;;;4.60;99.90;;;;;;5028736;28;20049;-80
2021/11/17 13:40:59;;;;;;;4.45;2.88;;;4.70;99.90;;;;;;5028850;28;20048;-82
2021/11/17 13:43:28;;;;;;;6.50;4.57;;;4.70;99.90;;;;;;5027381;28;20045;-83
2021/11/17 13:45:57;;;;;;;8.13;5.00;;;4.70;99.90;;;;;;5012672;28;20490;-83
2021/11/17 13:48:30;;;;;;;10.60;4.22;;;4.70;99.90;;;;;;5031351;28;20498;-82
2021/11/17 13:50:58;;;;;;;5.55;4.13;;;4.70;99.90;;;;;;5030492;28;20060;-81
2021/11/17 13:53:26;;;;;;;8.15;4.88;;;4.70;99.90;;;;;;5030369;28;20060;-82
2021/11/17 13:55:59;;;;;;;7.68;3.78;;;4.70;99.90;;;;;;5030566;28;20080;-82
2021/11/17 13:58:29;;;;;;;8.82;4.05;;;4.70;99.90;;;;;;5011270;28;20042;-82
2021/11/17 14:00:56;;;;;;;5.40;3.97;;;4.70;99.90;;;;;;5038774;28;20037;-82
2021/11/17 14:03:24;;;;;;;7.45;5.32;;;4.70;99.90;;;;;;5012708;28;20060;-81
2021/11/17 14:05:52;;;;;;;7.85;4.25;;;4.70;99.90;;;;;;5030363;28;20046;-82
2021/11/17 14:08:22;;;;;;;8.77;6.20;;;4.60;99.90;;;;;;5029878;28;20034;-82
2021/11/17 14:10:50;;;;;;;7.88;4.72;;;4.60;99.90;;;;;;5038038;28;20037;-82
2021/11/17 14:13:17;;;;;;;4.93;4.10;;;4.60;99.90;;;;;;5030732;28;20662;-82
2021/11/17 14:15:46;;;;;;;6.60;4.03;;;4.60;99.90;;;;;;5031258;28;20045;-82
2021/11/17 14:18:14;;;;;;;6.30;4.38;;;4.60;99.90;;;;;;5037789;28;20398;-82
2021/11/17 14:20:42;;;;;;;5.93;4.95;;;4.60;99.90;;;;;;5033040;28;20045;-81
2021/11/17 14:23:13;;;;;;;7.35;4.28;;;4.60;99.90;;;;;;4999343;28;20508;-81
2021/11/17 14:25:43;;;;;;;7.50;4.95;;;4.60;99.90;;;;;;5014177;28;20050;-81
2021/11/17 14:28:21;;;;;;;4.68;3.67;;;4.60;99.90;;;;;;5037459;28;20049;-81
2021/11/17 14:30:51;;;;;;;4.68;3.45;;;4.50;99.90;;;;;;5038437;28;20052;-82
2021/11/17 14:33:24;;;;;;;5.90;4.57;;;4.70;99.90;;;;;;5020407;28;20041;-83
2021/11/17 14:35:53;;;;;;;5.68;4.43;;;4.60;99.90;;;;;;5038567;28;20529;-83
2021/11/17 14:38:25;;;;;;;5.57;4.75;;;4.60;99.90;;;;;;4988350;28;20050;-82
2021/11/17 14:40:53;;;;;;;6.28;4.45;;;4.60;99.90;;;;;;4993368;28;20422;-82
2021/11/17 14:43:24;;;;;;;8.02;6.90;;;4.60;99.90;;;;;;5026319;28;20053;-82
2021/11/17 14:45:52;;;;;;;5.93;5.13;;;4.60;99.90;;;;;;5026900;28;20434;-83
2021/11/17 14:48:21;;;;;;;5.35;3.92;;;4.50;99.90;;;;;;5012446;28;20411;-81
2021/11/17 14:50:51;;;;;;;5.93;3.58;;;4.50;99.90;;;;;;5026382;28;20037;-78
2021/11/17 14:53:47;;;;;;;6.18;4.28;;;4.50;99.90;;;;;;5027828;28;20052;-78
2021/11/17 14:56:15;;;;;;;5.15;3.40;;;4.60;99.90;;;;;;5030717;28;20060;-78
2021/11/17 14:58:44;;;;;;;7.93;4.47;;;4.60;99.90;;;;;;5028866;28;20049;-81
2021/11/17 15:01:18;;;;;;;5.35;4.82;;;4.50;99.90;;;;;;5025982;28;20061;-83
2021/11/17 15:03:49;;;;;;;5.65;3.47;;;4.50;99.90;;;;;;5012413;28;20045;-82
2021/11/17 15:06:19;;;;;;;8.15;4.72;;;4.40;99.90;;;;;;5030266;28;20523;-83
2021/11/17 15:08:48;;;;;;;3.95;3.47;;;4.40;99.90;;;;;;5029245;28;20056;-85
2021/11/17 15:11:17;;;;;;;8.25;4.05;;;4.40;99.90;;;;;;5012203;28;20064;-82
2021/11/17 15:13:45;;;;;;;3.22;2.78;;;4.50;99.90;;;;;;5029115;28;20057;-82
2021/11/17 15:16:14;;;;;;;4.78;4.03;;;4.50;99.90;;;;;;5013582;28;20046;-82
2021/11/17 15:18:44;;;;;;;3.35;3.05;;;4.40;99.90;;;;;;5012555;28;20042;-82
2021/11/17 15:21:16;;;;;;;4.00;3.00;;;4.50;99.90;;;;;;5029554;28;20042;-83
2021/11/17 15:23:45;;;;;;;5.75;2.78;;;4.40;99.90;;;;;;4976043;28;20594;-83
2021/11/17 15:26:22;;;;;;;4.10;3.28;;;4.40;99.90;;;;;;4993545;28;20053;-83
2021/11/17 15:29:00;;;;;;;6.35;4.10;;;4.40;99.90;;;;;;4977940;28;20073;-83
2021/11/17 15:31:33;;;;;;;3.63;2.75;;;4.40;99.90;;;;;;5019046;28;20060;-84
2021/11/17 15:34:44;;;;;;;4.22;3.80;;;4.40;99.90;;;;;;4978240;28;20046;-84
2021/11/17 15:37:24;;;;;;;6.43;2.40;;;4.40;99.90;;;;;;4994240;28;20045;-83
2021/11/17 15:39:58;;;;;;;3.85;3.35;;;4.40;99.90;;;;;;5007287;28;20485;-83
2021/11/17 15:42:32;;;;;;;;;;;4.40;99.90;;;;;;4976609;28;20614;-83
2021/11/17 15:45:03;;;;;;;5.93;4.32;;;4.40;99.90;;;;;;5019431;28;20351;-84
2021/11/17 15:47:36;;;;;;;4.88;3.38;;;4.40;99.90;;;;;;4995865;28;20529;-83
2021/11/17 15:50:14;;;;;;;3.65;3.00;;;4.30;99.90;;;;;;4979835;28;20538;-83
2021/11/17 15:52:44;;;;;;;4.82;3.45;;;4.30;99.90;;;;;;4997065;28;20046;-83
2021/11/17 15:55:21;;;;;;;4.10;3.80;;;4.30;99.90;;;;;;4986060;28;20053;-84
2021/11/17 15:57:51;;;;;;;2.72;2.47;;;4.20;99.90;;;;;;5020621;28;20412;-82
2021/11/17 16:00:24;;;;;;;2.42;2.33;;;4.20;99.90;;;;;;5029276;28;20065;-83
2021/11/17 16:03:00;;;;;;;6.72;4.55;;;4.20;99.90;;;;;;5014420;28;20053;-83
2021/11/17 16:05:32;;;;;;;3.65;3.33;;;4.10;99.90;;;;;;5010629;28;20049;-83
2021/11/17 16:08:18;;;;;;;4.28;3.28;;;4.10;99.90;;;;;;5000805;28;20067;-83
2021/11/17 16:10:59;;;;;;;4.53;3.80;;;4.10;99.90;;;;;;5032042;28;20508;-82
2021/11/17 16:13:50;;;;;;;3.63;2.88;;;4.10;99.90;;;;;;4987101;28;20478;-82
2021/11/17 16:16:19;;;;;;;3.75;3.10;;;4.10;99.90;;;;;;5016428;28;20049;-83
2021/11/17 16:19:07;;;;;;;5.78;4.50;;;4.10;99.90;;;;;;5000101;28;20057;-83
2021/11/17 16:21:42;;;;;;;3.45;3.17;;;4.00;99.90;;;;;;5031324;28;20042;-82
2021/11/17 16:27:01;;;;;;;3.13;2.90;;;4.00;99.90;;;;;;5033209;28;20555;-79
2021/11/17 16:29:29;;;;;;;5.60;3.17;;;4.00;99.90;;;;;;5033193;28;20057;-80